createdAt,value
2023-03-06T00:01:20.118Z,15.93
2023-03-06T00:06:16.965Z,15.82
2023-03-06T00:11:14.905Z,12.13
2023-03-06T00:16:13.002Z,11.43
2023-03-06T00:21:09.970Z,26.38
2023-03-06T00:26:08.000Z,13.35
2023-03-06T00:31:08.366Z,13.45
2023-03-06T00:36:07.290Z,13.18
2023-03-06T00:41:08.934Z,13.10
2023-03-06T00:46:06.031Z,11.18
2023-03-06T00:51:03.161Z,11.07
2023-03-06T00:56:00.711Z,12.38
2023-03-06T01:00:57.671Z,11.38
2023-03-06T01:05:54.633Z,8.70
2023-03-06T01:10:51.590Z,10.75
2023-03-06T01:15:49.151Z,10.88
2023-03-06T01:20:46.074Z,10.00
2023-03-06T01:25:42.897Z,15.00
2023-03-06T01:30:40.050Z,12.40
2023-03-06T01:35:38.849Z,10.65
2023-03-06T01:40:37.045Z,11.02
2023-03-06T01:46:12.087Z,9.80
2023-03-06T01:51:10.598Z,10.52
2023-03-06T01:56:09.041Z,8.60
2023-03-06T02:01:05.971Z,9.15
2023-03-06T02:06:02.762Z,8.07
2023-03-06T02:11:11.144Z,10.35
2023-03-06T02:16:09.349Z,10.75
2023-03-06T02:21:08.893Z,7.97
2023-03-06T02:26:08.456Z,7.55
2023-03-06T02:31:06.634Z,9.82
2023-03-06T02:36:10.553Z,9.00
2023-03-06T02:41:09.353Z,9.30
2023-03-06T02:46:07.087Z,9.07
2023-03-06T02:51:04.047Z,13.82
2023-03-06T02:56:02.610Z,9.40
2023-03-06T03:01:00.282Z,13.00
2023-03-06T03:05:58.384Z,9.60
2023-03-06T03:11:00.632Z,7.85
2023-03-06T03:16:05.640Z,13.05
2023-03-06T03:21:07.836Z,11.13
2023-03-06T03:26:08.689Z,8.32
2023-03-06T03:31:10.062Z,10.50
2023-03-06T03:36:08.068Z,9.88
2023-03-06T03:41:08.930Z,8.23
2023-03-06T03:46:07.247Z,9.73
2023-03-06T03:51:05.970Z,10.70
2023-03-06T03:56:06.101Z,9.30
2023-03-06T04:01:08.460Z,8.40
2023-03-06T04:06:07.210Z,8.43
2023-03-06T04:11:04.686Z,12.13
2023-03-06T04:16:02.517Z,10.77
2023-03-06T04:21:02.696Z,10.38
2023-03-06T04:26:00.917Z,11.10
2023-03-06T04:30:58.469Z,10.13
2023-03-06T04:35:56.497Z,11.85
2023-03-06T04:40:58.354Z,9.15
2023-03-06T04:45:55.383Z,9.77
2023-03-06T04:50:52.184Z,10.05
2023-03-06T04:55:49.037Z,12.55
2023-03-06T05:00:46.540Z,13.38
2023-03-06T05:05:43.592Z,8.40
2023-03-06T05:10:40.370Z,11.88
2023-03-06T05:15:39.389Z,9.93
2023-03-06T05:20:36.903Z,11.63
2023-03-06T05:25:34.040Z,16.88
2023-03-06T05:30:32.233Z,9.23
2023-03-06T05:35:29.312Z,10.98
2023-03-06T05:40:28.098Z,25.77
2023-03-06T05:45:25.072Z,15.07
2023-03-06T05:50:21.956Z,13.25
2023-03-06T05:55:23.545Z,12.35
2023-03-06T06:00:22.509Z,15.90
2023-03-06T06:05:20.411Z,17.88
2023-03-06T06:10:17.603Z,19.90
2023-03-06T06:15:14.808Z,13.95
2023-03-06T06:20:13.670Z,16.02
2023-03-06T06:25:10.515Z,12.32
2023-03-06T06:30:11.844Z,17.35
2023-03-06T06:35:14.160Z,20.38
2023-03-06T06:40:14.659Z,18.25
2023-03-06T06:45:12.220Z,18.98
2023-03-06T06:50:12.238Z,14.75
2023-03-06T06:55:10.521Z,14.40
2023-03-06T07:00:10.396Z,16.42
2023-03-06T07:05:08.079Z,19.00
2023-03-06T07:10:06.821Z,15.73
2023-03-06T07:15:04.647Z,14.82
2023-03-06T07:20:03.117Z,18.38
2023-03-06T07:25:00.112Z,25.02
2023-03-06T07:29:56.992Z,15.65
2023-03-06T07:35:02.727Z,14.38
2023-03-06T07:40:12.120Z,14.18
2023-03-06T07:45:09.882Z,15.38
2023-03-06T07:50:07.511Z,14.57
2023-03-06T07:55:05.120Z,17.05
2023-03-06T08:00:03.350Z,15.32
2023-03-06T08:05:12.607Z,18.02
2023-03-06T08:10:13.410Z,15.18
2023-03-06T08:15:12.825Z,17.70
2023-03-06T08:20:11.656Z,17.15
2023-03-06T08:25:12.680Z,17.08
2023-03-06T08:30:12.024Z,16.15
2023-03-06T08:35:09.264Z,15.60
2023-03-06T08:40:09.164Z,17.27
2023-03-06T08:45:07.531Z,18.95
2023-03-06T08:50:05.719Z,16.67
2023-03-06T08:55:04.943Z,15.90
2023-03-06T09:00:06.250Z,15.45
2023-03-06T09:05:05.314Z,14.82
2023-03-06T09:10:02.552Z,15.27
2023-03-06T09:14:59.634Z,13.27
2023-03-06T09:24:42.621Z,17.45
2023-03-06T09:29:43.587Z,11.32
2023-03-06T09:34:41.783Z,17.55
2023-03-06T09:39:40.570Z,12.30
2023-03-06T09:44:40.661Z,15.73
2023-03-06T09:49:47.709Z,14.20
2023-03-06T09:54:50.865Z,11.90
2023-03-06T09:59:54.184Z,15.90
2023-03-06T10:04:56.026Z,14.70
2023-03-06T10:10:07.945Z,17.67
2023-03-06T10:20:21.785Z,14.25
2023-03-06T10:25:25.454Z,14.93
2023-03-06T10:30:37.475Z,17.90
2023-03-06T10:35:45.689Z,19.35
2023-03-06T10:40:55.397Z,16.48
2023-03-06T10:45:53.701Z,16.77
2023-03-06T10:50:51.498Z,18.90
2023-03-06T10:55:56.407Z,17.77
2023-03-06T11:01:07.131Z,17.52
2023-03-06T11:06:13.474Z,17.65
2023-03-06T11:11:14.490Z,18.30
2023-03-06T11:16:25.122Z,20.75
2023-03-06T11:21:31.374Z,24.13
2023-03-06T11:26:43.296Z,23.30
2023-03-06T11:31:47.692Z,27.80
2023-03-06T11:36:58.821Z,19.77
2023-03-06T11:42:08.089Z,19.35
2023-03-06T11:47:17.362Z,16.52
2023-03-06T11:52:22.199Z,22.88
2023-03-06T11:57:32.970Z,30.48
2023-03-06T12:02:42.591Z,20.05
2023-03-06T12:07:53.523Z,21.50
2023-03-06T12:13:14.914Z,22.60
2023-03-06T12:18:28.153Z,19.88
2023-03-06T12:23:52.443Z,20.02
2023-03-06T12:29:06.285Z,24.75
2023-03-06T12:34:20.526Z,22.63
2023-03-06T12:39:25.474Z,20.73
2023-03-06T12:44:55.559Z,18.15
2023-03-06T12:49:57.081Z,22.10
2023-03-06T12:54:54.399Z,18.52
2023-03-06T12:59:52.473Z,25.52
2023-03-06T13:05:04.871Z,17.48
2023-03-06T13:10:16.694Z,18.05
2023-03-06T13:15:38.459Z,16.00
2023-03-06T13:20:42.931Z,17.25
2023-03-06T13:25:48.512Z,18.30
2023-03-06T13:30:48.267Z,13.68
2023-03-06T13:35:52.794Z,14.70
2023-03-06T13:40:49.688Z,13.60
2023-03-06T13:45:48.468Z,11.70
2023-03-06T13:50:46.828Z,13.18
2023-03-06T13:55:51.844Z,10.40
2023-03-06T14:01:17.003Z,14.57
2023-03-06T14:06:41.751Z,12.27
2023-03-06T14:11:45.700Z,11.10
2023-03-06T14:16:50.843Z,10.88
2023-03-06T14:21:54.374Z,13.95
2023-03-06T14:26:51.836Z,10.73
2023-03-06T14:31:54.136Z,12.57
2023-03-06T14:36:52.499Z,16.42
2023-03-06T14:41:49.452Z,14.18
2023-03-06T14:46:48.580Z,19.75
2023-03-06T14:51:48.397Z,12.88
2023-03-06T14:56:48.172Z,12.30
2023-03-06T15:01:48.453Z,11.18
2023-03-06T15:06:46.396Z,25.77
2023-03-06T15:11:58.490Z,13.60
2023-03-06T15:17:16.048Z,13.13
2023-03-06T15:22:26.916Z,12.02
2023-03-06T15:27:34.885Z,13.43
2023-03-06T15:32:35.065Z,11.65
2023-03-06T15:37:44.378Z,14.35
2023-03-06T15:42:42.746Z,13.32
2023-03-06T15:47:45.123Z,15.38
2023-03-06T15:52:43.000Z,10.77
2023-03-06T15:57:43.689Z,20.77
2023-03-06T16:02:43.431Z,12.20
2023-03-06T16:07:40.443Z,23.45
2023-03-06T16:12:38.215Z,39.08
2023-03-06T16:17:35.035Z,27.30
2023-03-06T16:22:31.937Z,28.65
2023-03-06T16:27:29.382Z,28.40
2023-03-06T16:32:28.851Z,43.03
2023-03-06T16:37:25.787Z,42.15
2023-03-06T16:42:25.600Z,36.95
2023-03-06T16:47:22.728Z,57.05
2023-03-06T16:52:34.691Z,40.40
2023-03-06T16:57:36.166Z,41.97
2023-03-06T17:02:40.335Z,70.15
2023-03-06T17:07:40.646Z,74.78
2023-03-06T17:12:37.839Z,66.82
2023-03-06T17:17:43.501Z,38.83
2023-03-06T17:22:45.410Z,85.05
2023-03-06T17:27:44.220Z,76.10
2023-03-06T17:32:41.432Z,47.05
2023-03-06T17:37:38.686Z,42.85
2023-03-06T17:42:36.928Z,47.53
2023-03-06T17:47:34.227Z,67.25
2023-03-06T17:52:31.315Z,46.15
2023-03-06T17:57:28.528Z,62.85
2023-03-06T18:02:28.560Z,64.53
2023-03-06T18:07:28.188Z,78.63
2023-03-06T18:12:25.386Z,65.32
2023-03-06T18:17:22.468Z,75.38
2023-03-06T18:22:20.366Z,65.28
2023-03-06T18:27:17.464Z,62.03
2023-03-06T18:32:14.402Z,71.00
2023-03-06T18:37:18.783Z,68.05
2023-03-06T18:42:19.428Z,76.10
2023-03-06T18:47:16.604Z,76.22
2023-03-06T18:52:17.035Z,74.80
2023-03-06T18:57:13.942Z,77.97
2023-03-06T19:02:17.475Z,77.78
2023-03-06T19:07:14.535Z,75.72
2023-03-06T19:12:11.592Z,72.40
2023-03-06T19:17:08.654Z,74.80
2023-03-06T19:22:07.529Z,69.82
2023-03-06T19:27:05.604Z,79.40
2023-03-06T19:32:02.809Z,70.30
2023-03-06T19:36:59.784Z,63.72
2023-03-06T19:41:57.602Z,49.60
2023-03-06T19:46:54.765Z,31.80
2023-03-06T19:51:51.796Z,21.23
2023-03-06T19:56:48.807Z,31.88
2023-03-06T20:01:46.614Z,25.63
2023-03-06T20:06:44.889Z,21.65
2023-03-06T20:11:42.186Z,25.35
2023-03-06T20:16:39.558Z,21.63
2023-03-06T20:21:38.121Z,19.92
2023-03-06T20:26:36.955Z,18.10
2023-03-06T20:31:33.893Z,15.77
2023-03-06T20:36:35.799Z,21.48
2023-03-06T20:41:33.345Z,25.13
2023-03-06T20:46:33.421Z,21.10
2023-03-06T20:51:31.768Z,24.95
2023-03-06T20:56:30.662Z,19.95
2023-03-06T21:01:31.042Z,16.35
2023-03-06T21:06:28.693Z,16.95
2023-03-06T21:11:29.948Z,17.95
2023-03-06T21:16:29.630Z,16.27
2023-03-06T21:21:28.819Z,14.40
2023-03-06T21:26:28.548Z,16.70
2023-03-06T21:31:26.438Z,17.02
2023-03-06T21:36:24.496Z,19.42
2023-03-06T21:41:24.137Z,16.77
2023-03-06T21:46:21.476Z,16.63
2023-03-06T21:51:19.941Z,17.75
2023-03-06T21:56:19.892Z,14.98
2023-03-06T22:01:19.106Z,17.58
2023-03-06T22:06:19.707Z,15.05
2023-03-06T22:11:18.878Z,14.57
2023-03-06T22:16:16.501Z,14.77
2023-03-06T22:21:15.280Z,16.67
2023-03-06T22:26:13.766Z,21.88
2023-03-06T22:31:13.184Z,20.55
2023-03-06T22:36:12.775Z,22.13
2023-03-06T22:41:11.008Z,21.85
2023-03-06T22:46:09.404Z,20.80
2023-03-06T22:51:09.843Z,17.08
2023-03-06T22:56:09.871Z,18.83
2023-03-06T23:01:07.990Z,23.17
2023-03-06T23:06:07.451Z,21.35
2023-03-06T23:11:09.323Z,28.15
2023-03-06T23:16:25.469Z,22.17
2023-03-06T23:26:56.785Z,24.88
2023-03-06T23:31:53.604Z,25.70
2023-03-06T23:36:51.129Z,26.42
2023-03-06T23:41:48.804Z,24.63
2023-03-06T23:46:45.600Z,23.48
2023-03-06T23:51:42.606Z,22.13
2023-03-06T23:56:40.206Z,21.10
